Time;durP1;ratioP1;P1;durP2;ratioP2;P2;SDS_P1;SDS_P2;PMS_P1;PMS_P2;Temp;Humidity;BMP_temperature;BMP_pressure;BME280_temperature;BME280_humidity;BME280_pressure;Samples;Min_cycle;Max_cycle;Signal;HPM_P1;HPM_P2
2022/09/27 00:00:02;;;;;;;19.25;11.60;;;;;;;8.95;100.00;99576.59;5032954;28;20033;-61
2022/09/27 00:02:28;;;;;;;19.08;11.63;;;;;;;8.94;100.00;99572.19;5032886;28;20037;-60
2022/09/27 00:04:55;;;;;;;18.88;11.40;;;;;;;8.91;100.00;99572.88;5033098;28;20029;-60
2022/09/27 00:07:20;;;;;;;19.40;11.52;;;;;;;8.93;100.00;99578.06;5032521;28;20401;-60
2022/09/27 00:09:45;;;;;;;23.75;11.23;;;;;;;8.93;100.00;99584.38;5032535;28;20029;-60
2022/09/27 00:12:11;;;;;;;17.35;10.90;;;;;;;8.94;100.00;99583.25;5032309;28;20056;-60
2022/09/27 00:14:36;;;;;;;20.60;11.38;;;;;;;8.94;100.00;99588.75;5032261;28;20365;-60
2022/09/27 00:17:02;;;;;;;23.65;11.30;;;;;;;8.93;100.00;99589.09;5031988;28;20040;-60
2022/09/27 00:19:27;;;;;;;22.55;12.68;;;;;;;8.96;100.00;99600.28;5032445;28;20587;-61
2022/09/27 00:21:52;;;;;;;22.42;12.40;;;;;;;8.95;100.00;99590.38;5032613;28;20135;-60
2022/09/27 00:24:20;;;;;;;21.27;11.77;;;;;;;8.88;100.00;99585.34;5032234;28;20022;-60
2022/09/27 00:26:46;;;;;;;21.23;12.75;;;;;;;8.96;100.00;99600.28;5032698;28;20033;-60
2022/09/27 00:29:14;;;;;;;21.08;11.38;;;;;;;8.95;100.00;99587.63;5032010;28;20029;-60
2022/09/27 00:31:39;;;;;;;20.88;11.93;;;;;;;8.95;100.00;99590.38;5030598;28;20496;-60
2022/09/27 00:34:06;;;;;;;20.67;11.55;;;;;;;8.95;100.00;99604.16;5000040;28;20033;-60
2022/09/27 00:36:33;;;;;;;21.80;12.38;;;;;;;8.95;100.00;99609.69;5012310;28;20385;-60
2022/09/27 00:38:59;;;;;;;21.63;11.63;;;;;;;8.96;100.00;99605.78;5012187;28;20064;-60
2022/09/27 00:41:27;;;;;;;19.73;11.57;;;;;;;8.93;100.00;99600.13;5012398;28;20026;-60
2022/09/27 00:43:58;;;;;;;18.48;10.63;;;;;;;8.96;100.00;99608.56;5015176;28;20028;-60
2022/09/27 00:46:34;;;;;;;17.88;10.75;;;;;;;8.96;100.00;99603.03;5016004;28;20053;-60
2022/09/27 00:49:37;;;;;;;19.40;10.93;;;;;;;8.95;100.00;99603.38;5015989;28;20330;-60
2022/09/27 00:52:24;;;;;;;16.15;10.50;;;;;;;8.98;100.00;99611.81;4992471;28;20053;-60
2022/09/27 00:54:56;;;;;;;19.02;10.50;;;;;;;8.91;100.00;99608.72;4986174;28;20038;-61
2022/09/27 00:57:22;;;;;;;16.85;10.95;;;;;;;8.99;100.00;99613.44;5015956;28;20074;-60
2022/09/27 00:59:58;;;;;;;18.90;10.63;;;;;;;9.00;100.00;99616.97;5016094;28;20369;-60
2022/09/27 01:02:24;;;;;;;17.75;10.63;;;;;;;9.01;100.00;99630.47;5016198;28;20055;-60
2022/09/27 01:04:50;;;;;;;20.90;10.40;;;;;;;9.07;100.00;99620.06;5015186;28;20454;-60
2022/09/27 01:07:15;;;;;;;17.55;10.02;;;;;;;9.04;100.00;99631.75;5016569;28;20087;-60
2022/09/27 01:09:41;;;;;;;15.82;9.70;;;;;;;9.01;100.00;99638.75;5016111;28;20345;-60
2022/09/27 01:12:17;;;;;;;14.65;9.75;;;;;;;8.99;100.00;99632.75;5016274;28;20053;-59
2022/09/27 01:14:54;;;;;;;16.25;10.13;;;;;;;8.96;100.00;99616.81;5016580;28;20099;-59
2022/09/27 01:17:58;;;;;;;18.10;9.80;;;;;;;8.90;100.00;99598.84;5016000;28;20026;-61
2022/09/27 01:21:01;;;;;;;16.93;10.40;;;;;;;8.99;100.00;99618.94;5016077;28;20418;-60
2022/09/27 01:23:51;;;;;;;15.98;9.90;;;;;;;8.90;100.00;99620.91;5016162;28;20038;-59
2022/09/27 01:26:22;;;;;;;15.90;9.55;;;;;;;8.86;100.00;99617.16;5015660;28;20068;-59
2022/09/27 01:29:06;;;;;;;17.77;9.10;;;;;;;8.85;100.00;99618.28;5016151;28;20033;-60
2022/09/27 01:31:40;;;;;;;13.63;9.43;;;;;;;8.74;100.00;99610.34;5015865;28;20112;-59
2022/09/27 01:34:15;;;;;;;16.30;10.10;;;;;;;8.71;100.00;99601.91;5015396;28;20053;-59
2022/09/27 01:36:59;;;;;;;14.32;9.55;;;;;;;8.78;100.00;99627.06;5015599;28;20115;-59
2022/09/27 01:39:40;;;;;;;17.30;10.30;;;;;;;8.74;100.00;99626.88;5015753;28;20082;-59
2022/09/27 01:42:13;;;;;;;18.90;10.30;;;;;;;8.65;100.00;99605.97;5015743;28;20065;-60
2022/09/27 01:45:01;;;;;;;16.90;9.80;;;;;;;8.71;100.00;99632.22;5015075;28;20450;-59
2022/09/27 01:47:44;;;;;;;17.00;10.02;;;;;;;8.69;100.00;99626.25;5015448;28;20026;-59
2022/09/27 01:50:22;;;;;;;17.80;9.50;;;;;;;8.62;100.00;99634.16;5015100;28;20034;-60
2022/09/27 01:52:57;;;;;;;16.27;9.20;;;;;;;8.63;100.00;99641.31;5015044;28;20053;-60
2022/09/27 01:55:30;;;;;;;14.82;9.30;;;;;;;8.62;100.00;99639.69;5015411;28;20022;-60
2022/09/27 01:58:01;;;;;;;17.30;8.98;;;;;;;8.50;100.00;99624.59;5015209;28;20037;-60
2022/09/27 02:00:27;;;;;;;15.00;9.05;;;;;;;8.60;100.00;99637.25;5015027;28;20026;-60
2022/09/27 02:03:07;;;;;;;17.27;8.95;;;;;;;8.60;100.00;99641.97;5014829;28;20030;-59
2022/09/27 02:05:51;;;;;;;13.70;8.63;;;;;;;8.57;100.00;99637.91;5015067;28;20038;-59
2022/09/27 02:08:27;;;;;;;12.27;8.73;;;;;;;8.53;100.00;99634.97;5014743;28;20040;-60
2022/09/27 02:10:57;;;;;;;16.00;8.50;;;;;;;8.40;100.00;99611.09;5014916;28;20107;-61
2022/09/27 02:14:15;;;;;;;16.65;9.00;;;;;;;8.53;100.00;99628.66;5014952;28;20050;-59
2022/09/27 02:16:51;;;;;;;14.77;8.60;;;;;;;8.50;100.00;99641.13;4991265;28;20053;-60
2022/09/27 02:19:26;;;;;;;15.00;9.27;;;;;;;8.46;100.00;99642.06;5014571;28;20052;-60
2022/09/27 02:22:23;;;;;;;15.45;10.07;;;;;;;8.42;100.00;99639.97;5014719;28;20057;-60
2022/09/27 02:25:21;;;;;;;14.45;8.93;;;;;;;8.39;100.00;99642.56;5014605;28;20030;-60
2022/09/27 02:28:04;;;;;;;14.82;9.98;;;;;;;8.35;100.00;99644.31;5007175;28;20117;-60
2022/09/27 02:30:30;;;;;;;17.30;10.15;;;;;;;8.31;100.00;99646.09;5013991;28;20026;-60
2022/09/27 02:32:55;;;;;;;15.88;9.98;;;;;;;8.26;100.00;99638.81;5014822;28;20480;-60
2022/09/27 02:35:28;;;;;;;13.77;9.45;;;;;;;8.24;100.00;99641.84;5014796;28;20030;-59
2022/09/27 02:37:54;;;;;;;14.63;10.10;;;;;;;8.23;100.00;99633.91;5013880;28;20037;-59
2022/09/27 02:40:21;;;;;;;15.00;8.88;;;;;;;8.19;100.00;99650.28;5014396;28;20034;-59
2022/09/27 02:42:46;;;;;;;13.40;9.40;;;;;;;8.15;100.00;99641.00;5014470;28;20436;-59
2022/09/27 02:45:14;;;;;;;14.70;8.90;;;;;;;8.10;100.00;99652.19;5013729;28;20477;-59
2022/09/27 02:47:53;;;;;;;14.57;9.60;;;;;;;8.10;100.00;99652.19;5013835;28;20105;-59
2022/09/27 02:50:40;;;;;;;14.57;9.07;;;;;;;8.07;100.00;99650.91;5014096;28;20034;-58
2022/09/27 02:53:25;;;;;;;15.30;9.57;;;;;;;8.06;100.00;99643.75;5014160;28;20108;-59
2022/09/27 02:56:17;;;;;;;15.50;10.20;;;;;;;8.04;100.00;99643.25;5013886;28;20101;-59
2022/09/27 02:58:51;;;;;;;16.15;9.80;;;;;;;7.99;100.00;99637.06;5013707;28;20030;-59
2022/09/27 03:01:28;;;;;;;14.75;9.45;;;;;;;7.96;100.00;99646.78;5013636;28;20022;-59
2022/09/27 03:04:22;;;;;;;15.07;8.90;;;;;;;7.92;100.00;99646.63;5013777;28;20034;-59
2022/09/27 03:06:50;;;;;;;17.73;10.10;;;;;;;7.90;100.00;99642.53;5013036;28;20029;-59
2022/09/27 03:09:20;;;;;;;17.52;9.85;;;;;;;7.85;100.00;99635.22;5013823;28;20025;-59
2022/09/27 03:11:45;;;;;;;19.15;9.80;;;;;;;7.80;100.00;99644.44;5012983;28;20058;-60
2022/09/27 03:14:11;;;;;;;15.68;9.50;;;;;;;7.77;100.00;99644.28;5013263;28;20025;-59
2022/09/27 03:16:36;;;;;;;14.75;9.18;;;;;;;7.73;100.00;99646.03;5011952;28;20129;-59
2022/09/27 03:19:01;;;;;;;19.15;9.65;;;;;;;7.71;100.00;99649.09;5013553;28;20026;-60
2022/09/27 03:21:28;;;;;;;17.65;9.45;;;;;;;7.73;100.00;99648.81;5012067;28;20100;-60
2022/09/27 03:23:53;;;;;;;14.65;9.27;;;;;;;7.69;100.00;99645.03;5012281;28;20053;-59
2022/09/27 03:26:19;;;;;;;16.15;9.43;;;;;;;7.67;100.00;99636.28;5012980;28;20143;-59
2022/09/27 03:28:44;;;;;;;14.75;9.60;;;;;;;7.63;100.00;99645.19;5013761;28;20037;-60
2022/09/27 03:31:10;;;;;;;17.13;9.68;;;;;;;7.60;100.00;99639.50;5013364;28;20033;-60
2022/09/27 03:33:35;;;;;;;17.35;9.88;;;;;;;7.61;100.00;99641.09;5012911;28;20296;-60
2022/09/27 03:36:00;;;;;;;18.58;9.77;;;;;;;7.61;100.00;99655.69;5012710;28;20030;-60
2022/09/27 03:38:26;;;;;;;17.25;9.75;;;;;;;7.61;100.00;99654.88;5013009;28;20022;-60
2022/09/27 03:40:51;;;;;;;16.20;10.20;;;;;;;7.62;100.00;99662.00;5012587;28;20469;-59
2022/09/27 03:43:17;;;;;;;16.48;9.77;;;;;;;7.61;100.00;99665.88;5012553;28;20091;-60
2022/09/27 03:45:44;;;;;;;16.65;9.50;;;;;;;7.64;100.00;99668.00;5012526;28;20034;-59
2022/09/27 03:48:09;;;;;;;17.13;10.45;;;;;;;7.66;100.00;99671.28;5012765;28;20034;-60
2022/09/27 03:50:35;;;;;;;18.25;10.00;;;;;;;7.71;100.00;99676.63;5012638;28;20044;-59
2022/09/27 03:53:00;;;;;;;14.82;9.75;;;;;;;7.71;100.00;99679.38;5012830;28;20022;-59
2022/09/27 03:55:26;;;;;;;17.35;10.55;;;;;;;7.78;100.00;99710.06;5016899;28;20396;-59
2022/09/27 03:57:51;;;;;;;16.70;10.25;;;;;;;7.82;100.00;99710.22;5033071;28;20033;-60
2022/09/27 04:00:17;;;;;;;18.63;10.60;;;;;;;7.88;100.00;99711.72;5032499;28;20159;-60
2022/09/27 04:02:42;;;;;;;18.20;10.95;;;;;;;7.93;100.00;99714.34;5032219;28;20453;-60
2022/09/27 04:05:08;;;;;;;17.55;10.40;;;;;;;7.94;100.00;99706.88;5032270;28;20040;-60
2022/09/27 04:07:33;;;;;;;16.83;10.10;;;;;;;7.94;100.00;99709.63;5032811;28;20026;-62
2022/09/27 04:09:59;;;;;;;16.98;9.70;;;;;;;7.96;100.00;99696.38;5032250;28;20362;-60
2022/09/27 04:12:24;;;;;;;14.93;9.23;;;;;;;7.95;100.00;99700.25;5032719;28;20123;-60
2022/09/27 04:14:49;;;;;;;14.93;9.90;;;;;;;7.92;100.00;99693.44;5032231;28;20487;-60
2022/09/27 04:17:15;;;;;;;12.77;9.50;;;;;;;7.88;100.00;99694.38;5025877;28;20034;-60
2022/09/27 04:19:40;;;;;;;15.50;9.90;;;;;;;7.84;100.00;99694.19;5012787;28;20061;-59
2022/09/27 04:22:05;;;;;;;17.10;9.57;;;;;;;7.80;100.00;99684.94;5012183;28;20026;-60
2022/09/27 04:24:31;;;;;;;16.63;9.85;;;;;;;7.80;100.00;99663.72;5012672;28;20442;-59
2022/09/27 04:26:57;;;;;;;13.45;9.85;;;;;;;7.76;100.00;99660.00;5011174;28;20092;-60
2022/09/27 04:29:22;;;;;;;13.75;9.48;;;;;;;7.73;100.00;99665.31;5011398;28;20079;-59
2022/09/27 04:31:48;;;;;;;13.23;9.90;;;;;;;7.70;100.00;99660.44;5012475;28;20489;-59
2022/09/27 04:34:13;;;;;;;14.38;10.00;;;;;;;7.70;100.00;99658.47;5011215;28;20037;-59
2022/09/27 04:36:38;;;;;;;14.30;10.27;;;;;;;7.71;100.00;99654.59;5012008;28;20054;-60
2022/09/27 04:39:06;;;;;;;16.50;10.13;;;;;;;7.59;100.00;99649.69;5012378;28;20038;-59
2022/09/27 04:41:31;;;;;;;16.45;10.10;;;;;;;7.68;100.00;99662.69;5011178;28;20022;-60
2022/09/27 04:44:00;;;;;;;14.80;10.23;;;;;;;7.67;100.00;99663.81;5012250;28;20084;-60
2022/09/27 04:46:30;;;;;;;15.05;9.77;;;;;;;7.69;100.00;99665.13;5011937;28;20045;-59
2022/09/27 04:48:56;;;;;;;16.17;11.10;;;;;;;7.67;100.00;99670.16;5012067;28;20029;-60
2022/09/27 04:51:22;;;;;;;16.13;10.70;;;;;;;7.65;100.00;99670.44;5012086;28;20413;-60
2022/09/27 04:53:47;;;;;;;16.52;10.40;;;;;;;7.67;100.00;99667.38;5012421;28;20481;-60
2022/09/27 04:56:14;;;;;;;16.92;10.13;;;;;;;7.64;100.00;99681.78;5012091;28;20452;-59
2022/09/27 04:58:41;;;;;;;15.07;10.43;;;;;;;7.63;100.00;99683.72;5012555;28;20050;-59
2022/09/27 05:01:08;;;;;;;17.30;10.70;;;;;;;7.66;100.00;99690.53;5011139;28;20026;-60
2022/09/27 05:03:33;;;;;;;16.17;11.05;;;;;;;7.70;100.00;99699.78;5012715;28;20053;-61
2022/09/27 05:05:59;;;;;;;16.63;10.63;;;;;;;7.74;100.00;99706.28;5012143;28;20068;-60
2022/09/27 05:08:25;;;;;;;16.42;10.73;;;;;;;7.73;100.00;99701.09;5012150;28;20034;-60
2022/09/27 05:10:50;;;;;;;15.00;10.55;;;;;;;7.75;100.00;99723.59;5012358;28;20034;-60
2022/09/27 05:13:17;;;;;;;13.75;10.50;;;;;;;7.77;100.00;99724.94;5012305;28;20608;-59
2022/09/27 05:15:42;;;;;;;16.67;10.70;;;;;;;7.75;100.00;99726.38;5012642;28;20022;-60
2022/09/27 05:18:08;;;;;;;15.57;10.18;;;;;;;7.74;100.00;99724.75;5011859;28;20326;-60
2022/09/27 05:20:35;;;;;;;14.45;9.90;;;;;;;7.72;100.00;99727.00;5011896;28;20037;-60
2022/09/27 05:23:03;;;;;;;17.77;10.80;;;;;;;7.73;100.00;99726.69;5012042;28;20105;-60
2022/09/27 05:25:29;;;;;;;16.27;10.90;;;;;;;7.76;100.00;99716.97;5012752;28;20026;-59
2022/09/27 05:27:56;;;;;;;16.17;10.63;;;;;;;7.70;100.00;99718.25;5012840;28;20033;-60
2022/09/27 05:30:21;;;;;;;14.90;9.80;;;;;;;7.70;100.00;99710.78;5015900;28;20133;-59
2022/09/27 05:32:48;;;;;;;17.00;10.23;;;;;;;7.67;100.00;99699.59;5015854;28;20105;-59
2022/09/27 05:35:14;;;;;;;15.25;10.25;;;;;;;7.65;100.00;99692.47;5016035;28;20042;-59
2022/09/27 05:37:40;;;;;;;16.30;9.68;;;;;;;7.61;100.00;99694.22;5015359;28;20030;-59
2022/09/27 05:40:06;;;;;;;13.07;9.07;;;;;;;7.62;100.00;99703.28;5015168;28;20026;-58
2022/09/27 05:42:32;;;;;;;15.35;9.18;;;;;;;7.63;100.00;99693.91;5015763;28;20033;-59
2022/09/27 05:44:58;;;;;;;12.55;9.10;;;;;;;7.65;100.00;99706.22;5015800;28;20029;-59
2022/09/27 05:47:24;;;;;;;12.45;9.73;;;;;;;7.64;100.00;99695.53;5015848;28;20080;-60
2022/09/27 05:49:49;;;;;;;14.65;10.05;;;;;;;7.67;100.00;99689.41;5014159;28;20450;-60
2022/09/27 05:52:14;;;;;;;16.30;10.70;;;;;;;7.68;100.00;99690.22;5015588;28;20026;-60
2022/09/27 05:54:40;;;;;;;12.63;10.20;;;;;;;7.70;100.00;99687.97;5015351;28;20028;-60
2022/09/27 05:57:07;;;;;;;13.25;9.65;;;;;;;7.73;100.00;99688.13;5013962;28;20026;-60
2022/09/27 05:59:32;;;;;;;14.45;9.00;;;;;;;7.72;100.00;99686.50;5015780;28;20045;-60
2022/09/27 06:01:58;;;;;;;15.10;10.13;;;;;;;7.74;100.00;99687.00;5015348;28;20030;-60
2022/09/27 06:04:23;;;;;;;14.88;10.57;;;;;;;7.70;100.00;99676.94;5015685;28;20034;-60
2022/09/27 06:06:48;;;;;;;12.98;9.70;;;;;;;7.69;100.00;99678.06;5014835;28;20417;-59
2022/09/27 06:09:15;;;;;;;15.43;9.88;;;;;;;7.73;100.00;99685.38;5013997;28;20076;-60
2022/09/27 06:11:44;;;;;;;15.13;9.70;;;;;;;7.71;100.00;99687.63;5015106;28;20112;-60
2022/09/27 06:14:10;;;;;;;14.63;9.70;;;;;;;7.71;100.00;99697.84;5015255;28;20034;-59
2022/09/27 06:16:36;;;;;;;17.95;10.50;;;;;;;7.83;100.00;99702.78;5014623;28;20029;-61
2022/09/27 06:19:03;;;;;;;13.50;9.90;;;;;;;7.99;100.00;99711.44;5014383;28;20030;-61
2022/09/27 06:21:29;;;;;;;11.68;9.50;;;;;;;7.97;100.00;99700.75;5014068;28;20021;-60
2022/09/27 06:23:58;;;;;;;13.75;9.52;;;;;;;8.00;100.00;99718.56;5013948;28;20366;-61
2022/09/27 06:26:26;;;;;;;13.52;9.52;;;;;;;7.94;100.00;99726.97;5012798;28;20034;-58
2022/09/27 06:28:51;;;;;;;15.07;9.90;;;;;;;7.95;100.00;99722.28;5013297;28;20026;-59
2022/09/27 06:31:17;;;;;;;14.18;9.68;;;;;;;7.93;100.00;99721.78;5014284;28;20033;-59
2022/09/27 06:33:42;;;;;;;11.88;9.18;;;;;;;7.95;100.00;99720.31;5014130;28;20046;-59
2022/09/27 06:36:08;;;;;;;12.65;9.43;;;;;;;7.95;100.00;99723.06;5014576;28;20373;-59
2022/09/27 06:38:34;;;;;;;13.52;9.75;;;;;;;7.97;100.00;99720.84;5014375;28;20029;-59
2022/09/27 06:41:05;;;;;;;12.38;9.40;;;;;;;7.95;100.00;99725.84;4998802;28;20481;-60
2022/09/27 06:43:32;;;;;;;14.70;9.80;;;;;;;7.91;100.00;99732.28;4994138;28;20077;-59
2022/09/27 06:46:03;;;;;;;13.10;9.55;;;;;;;7.90;100.00;99728.72;4993743;28;20034;-59
2022/09/27 06:48:30;;;;;;;11.43;9.38;;;;;;;7.87;100.00;99714.78;4991879;28;20030;-60
2022/09/27 06:50:57;;;;;;;12.02;9.23;;;;;;;7.84;100.00;99716.22;4993426;28;20045;-60
2022/09/27 06:53:23;;;;;;;14.52;9.70;;;;;;;7.89;100.00;99724.34;4993333;28;20026;-60
2022/09/27 06:55:50;;;;;;;13.40;9.90;;;;;;;7.88;100.00;99728.22;4993495;28;20076;-60
2022/09/27 07:01:00;;;;;;;14.40;9.40;;;;;;;7.92;100.00;99734.75;4992500;28;20041;-60
2022/09/27 07:03:30;;;;;;;12.32;9.55;;;;;;;7.88;100.00;99735.69;4992896;28;20030;-59
2022/09/27 07:06:01;;;;;;;12.20;9.60;;;;;;;7.83;100.00;99719.28;5008014;28;20464;-60
2022/09/27 07:08:28;;;;;;;14.45;9.75;;;;;;;7.94;100.00;99726.97;5007767;28;20109;-61
2022/09/27 07:10:55;;;;;;;14.65;9.73;;;;;;;7.97;100.00;99733.81;4992767;28;20136;-58
2022/09/27 07:13:21;;;;;;;13.63;9.35;;;;;;;8.00;100.00;99733.16;4992734;28;20120;-59
2022/09/27 07:15:47;;;;;;;14.32;9.52;;;;;;;8.01;100.00;99726.50;4993031;28;20505;-59
2022/09/27 07:18:12;;;;;;;14.43;9.20;;;;;;;8.06;100.00;99734.66;4993138;28;20442;-59
2022/09/27 07:20:38;;;;;;;14.27;9.90;;;;;;;8.14;100.00;99738.56;4992872;28;20383;-59
2022/09/27 07:23:05;;;;;;;14.65;9.43;;;;;;;8.16;100.00;99730.00;4992748;28;20038;-60
2022/09/27 07:25:32;;;;;;;12.55;9.30;;;;;;;8.22;100.00;99746.06;4992366;28;20030;-60
2022/09/27 07:28:00;;;;;;;13.70;9.57;;;;;;;8.25;100.00;99739.91;4992564;28;20034;-61
2022/09/27 07:30:26;;;;;;;13.75;9.80;;;;;;;8.23;100.00;99749.63;4997905;28;20026;-60
2022/09/27 07:32:57;;;;;;;13.90;9.30;;;;;;;8.21;100.00;99738.13;5002338;28;20057;-59
2022/09/27 07:35:23;;;;;;;14.63;9.60;;;;;;;8.33;100.00;99751.28;5000854;28;20168;-59
2022/09/27 07:37:48;;;;;;;13.43;9.23;;;;;;;8.37;100.00;99755.03;5002657;28;20515;-59
2022/09/27 07:40:14;;;;;;;13.70;9.48;;;;;;;8.40;100.00;99757.97;5000950;28;20034;-60
2022/09/27 07:42:40;;;;;;;14.23;9.50;;;;;;;8.42;100.00;99763.16;5002385;28;20036;-59
2022/09/27 07:45:07;;;;;;;14.32;9.48;;;;;;;8.42;100.00;99771.41;5000396;28;20033;-59
2022/09/27 07:47:33;;;;;;;17.02;10.32;;;;;;;8.46;100.00;99766.91;5002897;28;20034;-59
2022/09/27 07:49:58;;;;;;;15.85;10.35;;;;;;;8.48;100.00;99766.63;4999871;28;20501;-58
2022/09/27 07:52:23;;;;;;;16.70;10.45;;;;;;;8.50;100.00;99750.56;5008359;28;20030;-59
2022/09/27 07:54:49;;;;;;;17.08;10.32;;;;;;;8.50;100.00;99756.09;5011518;28;20029;-59
2022/09/27 07:57:16;;;;;;;17.60;10.65;;;;;;;8.55;100.00;99750.41;5011326;28;20030;-58
2022/09/27 07:59:41;;;;;;;16.73;10.57;;;;;;;8.57;100.00;99760.03;5011375;28;20045;-59
2022/09/27 08:02:15;;;;;;;18.20;10.82;;;;;;;8.63;100.00;99763.44;5010766;28;20114;-59
2022/09/27 08:04:45;;;;;;;16.85;11.13;;;;;;;8.68;100.00;99774.31;5011772;28;20034;-60
2022/09/27 08:07:11;;;;;;;17.92;11.02;;;;;;;8.71;100.00;99776.44;5011317;28;20052;-60
2022/09/27 08:09:37;;;;;;;18.20;11.60;;;;;;;8.75;100.00;99768.34;5011730;28;20029;-59
2022/09/27 08:12:03;;;;;;;17.20;10.88;;;;;;;8.82;100.00;99767.88;5011428;28;20046;-59
2022/09/27 08:14:29;;;;;;;16.83;10.57;;;;;;;8.86;100.00;99766.91;5011348;28;20030;-59
2022/09/27 08:16:54;;;;;;;18.20;10.82;;;;;;;8.89;100.00;99773.72;5011640;28;20466;-60
2022/09/27 08:19:20;;;;;;;16.70;10.45;;;;;;;8.94;100.00;99775.53;5011775;28;20030;-59
2022/09/27 08:21:46;;;;;;;17.70;10.95;;;;;;;8.97;100.00;99774.88;5011464;28;20101;-59
2022/09/27 08:24:11;;;;;;;17.70;10.63;;;;;;;9.00;100.00;99775.06;5011444;28;20030;-58
2022/09/27 08:26:37;;;;;;;18.27;11.35;;;;;;;9.03;100.00;99765.31;5011635;28;20028;-59
2022/09/27 08:29:02;;;;;;;19.48;11.90;;;;;;;9.14;100.00;99779.59;5010050;28;20033;-60
2022/09/27 08:31:27;;;;;;;18.63;11.27;;;;;;;9.14;100.00;99774.09;5011609;28;20026;-60
2022/09/27 08:33:53;;;;;;;19.38;11.02;;;;;;;9.19;100.00;99774.75;5011067;28;20101;-60
2022/09/27 08:36:22;;;;;;;16.40;10.77;;;;;;;9.25;100.00;99771.84;5011649;28;20033;-59
2022/09/27 08:38:49;;;;;;;18.33;11.25;;;;;;;9.28;100.00;99777.53;5011688;28;20057;-59
2022/09/27 08:41:32;;;;;;;18.40;11.43;;;;;;;9.35;100.00;99777.84;5009874;28;20037;-59
2022/09/27 08:44:22;;;;;;;18.88;11.50;;;;;;;9.39;100.00;99771.69;5009725;28;20127;-59
2022/09/27 08:47:07;;;;;;;19.42;12.30;;;;;;;9.34;100.00;99769.91;5009629;28;20371;-60
2022/09/27 08:49:45;;;;;;;19.20;12.65;;;;;;;9.26;100.00;99785.31;5011253;28;20030;-60
2022/09/27 08:52:31;;;;;;;19.90;12.57;;;;;;;9.26;100.00;99782.53;5011340;28;20034;-59
2022/09/27 08:55:01;;;;;;;20.38;12.75;;;;;;;9.19;100.00;99779.47;5011285;28;20022;-59
2022/09/27 08:57:27;;;;;;;20.17;13.60;;;;;;;9.23;100.00;99796.97;5011300;28;20030;-60
2022/09/27 09:00:01;;;;;;;21.88;12.98;;;;;;;9.15;100.00;99784.81;5011152;28;20029;-58
2022/09/27 09:02:27;;;;;;;21.05;12.57;;;;;;;9.21;100.00;99793.72;5009984;28;20038;-58
2022/09/27 09:05:01;;;;;;;20.52;12.90;;;;;;;9.23;100.00;99794.22;5014064;28;20026;-58
2022/09/27 09:08:05;;;;;;;19.35;12.40;;;;;;;9.30;100.00;99802.03;5014765;28;20480;-60
2022/09/27 09:13:47;;;;;;;21.08;13.70;;;;;;;9.21;100.00;99800.06;5014527;28;20060;-59
2022/09/27 09:16:32;;;;;;;;;;;;;;;9.36;100.00;99807.06;5013645;28;20037;-59
2022/09/27 09:19:12;;;;;;;22.20;14.45;;;;;;;9.25;100.00;99808.50;5014582;28;19940;-59
2022/09/27 09:21:52;;;;;;;19.90;13.80;;;;;;;9.27;100.00;99810.94;5014220;28;20034;-59
2022/09/27 09:24:23;;;;;;;22.80;14.77;;;;;;;9.21;100.00;99811.09;5013074;28;20033;-59
2022/09/27 09:27:24;;;;;;;22.42;15.00;;;;;;;9.26;100.00;99807.38;5014982;28;20084;-59
2022/09/27 09:30:20;;;;;;;22.05;14.73;;;;;;;9.29;100.00;99812.25;4988722;28;20045;-60
2022/09/27 09:32:55;;;;;;;21.92;16.00;;;;;;;9.24;100.00;99811.59;5014810;28;20038;-58
2022/09/27 09:36:02;;;;;;;21.77;15.07;;;;;;;9.23;100.00;99819.06;5014546;28;20026;-60
2022/09/27 09:38:39;;;;;;;22.10;15.02;;;;;;;9.24;100.00;99806.88;4953376;29;20121;-59
2022/09/27 09:41:10;;;;;;;22.50;15.15;;;;;;;9.20;100.00;99797.66;5008665;28;20049;-59
2022/09/27 09:43:49;;;;;;;22.25;15.02;;;;;;;9.25;100.00;99808.50;5014553;28;20029;-60
2022/09/27 09:46:26;;;;;;;23.35;15.23;;;;;;;9.04;100.00;99776.00;5014372;28;20030;-58
2022/09/27 09:49:06;;;;;;;22.27;15.55;;;;;;;9.19;100.00;99802.34;5014481;28;20175;-59
2022/09/27 09:51:41;;;;;;;22.30;15.52;;;;;;;9.08;100.00;99784.47;5014202;28;20088;-59
2022/09/27 09:54:20;;;;;;;20.55;15.18;;;;;;;9.24;100.00;99814.38;5013650;28;20033;-59
2022/09/27 09:56:52;;;;;;;18.92;12.32;;;;;;;9.10;100.00;99795.19;5013745;28;20088;-58
2022/09/27 09:59:24;;;;;;;18.88;13.02;;;;;;;9.12;100.00;99813.03;5013741;28;20037;-58
2022/09/27 10:01:54;;;;;;;18.75;11.80;;;;;;;9.04;100.00;99809.13;5013051;28;20041;-59
2022/09/27 10:04:23;;;;;;;17.30;10.82;;;;;;;8.97;100.00;99813.50;5013991;28;20504;-60
2022/09/27 10:06:50;;;;;;;14.23;9.70;;;;;;;8.95;99.34;99819.31;5013546;28;20038;-59
2022/09/27 10:09:19;;;;;;;14.93;8.93;;;;;;;8.84;97.96;99804.19;5013385;28;20033;-59
2022/09/27 10:11:45;;;;;;;16.15;9.20;;;;;;;8.84;99.70;99804.19;5013392;28;20053;-59
2022/09/27 10:14:14;;;;;;;12.75;9.15;;;;;;;8.81;100.00;99793.81;5013116;28;20058;-60
2022/09/27 10:16:52;;;;;;;11.40;8.82;;;;;;;9.04;98.86;99816.59;5012403;28;20022;-59
2022/09/27 10:19:26;;;;;;;13.38;9.25;;;;;;;9.03;99.21;99806.69;5013290;28;20109;-59
2022/09/27 10:21:51;;;;;;;12.82;9.20;;;;;;;9.07;98.99;99802.16;5013459;28;20470;-59
2022/09/27 10:24:20;;;;;;;15.90;9.68;;;;;;;9.24;99.57;99809.66;5005153;28;20057;-59
2022/09/27 10:26:48;;;;;;;15.68;9.90;;;;;;;9.33;99.95;99807.72;5003337;28;20032;-59
2022/09/27 10:29:15;;;;;;;20.35;10.90;;;;;;;9.39;100.00;99810.31;5007204;28;20033;-60
2022/09/27 10:31:46;;;;;;;17.35;10.40;;;;;;;9.48;100.00;99811.94;5002657;28;20026;-58
2022/09/27 10:34:39;;;;;;;17.08;10.77;;;;;;;9.50;100.00;99800.56;5000736;28;20386;-59
2022/09/27 10:37:11;;;;;;;18.67;10.90;;;;;;;9.65;100.00;99819.44;5000931;28;20051;-58
2022/09/27 10:39:37;;;;;;;15.00;10.13;;;;;;;9.71;99.56;99811.78;5001663;28;20022;-59
2022/09/27 10:42:22;;;;;;;13.85;9.18;;;;;;;9.80;97.43;99817.28;5003207;28;20022;-60
2022/09/27 10:44:48;;;;;;;14.88;9.80;;;;;;;9.71;96.88;99813.72;5001050;28;20026;-60
2022/09/27 10:47:21;;;;;;;10.77;8.52;;;;;;;9.66;96.70;99818.28;5001430;28;20034;-59
2022/09/27 10:49:51;;;;;;;11.43;8.52;;;;;;;9.72;95.61;99809.84;5003635;28;20034;-60
2022/09/27 10:52:22;;;;;;;12.55;8.73;;;;;;;9.68;96.90;99813.22;5002827;28;20631;-59
2022/09/27 10:54:57;;;;;;;12.25;8.68;;;;;;;9.72;96.71;99807.06;4997842;28;20066;-60
2022/09/27 10:57:25;;;;;;;11.18;8.10;;;;;;;9.68;94.08;99801.38;5002261;28;20363;-59
2022/09/27 10:59:55;;;;;;;13.02;8.75;;;;;;;9.77;96.37;99817.97;4992621;28;20034;-59
2022/09/27 11:02:23;;;;;;;13.73;8.73;;;;;;;9.73;96.64;99798.44;4991257;28;20088;-58
2022/09/27 11:05:28;;;;;;;11.88;8.90;;;;;;;9.99;95.38;99806.72;4991108;28;20552;-59
2022/09/27 11:07:58;;;;;;;10.95;8.45;;;;;;;9.82;92.14;99803.97;4971997;28;20520;-59
2022/09/27 11:10:30;;;;;;;11.60;8.40;;;;;;;9.86;94.61;99809.66;4992437;28;20053;-57
2022/09/27 11:13:17;;;;;;;12.95;9.40;;;;;;;9.84;94.29;99796.97;4992656;28;20072;-60
2022/09/27 11:16:00;;;;;;;11.65;8.80;;;;;;;9.84;94.25;99816.31;4992026;28;20503;-59
2022/09/27 11:18:44;;;;;;;11.13;8.40;;;;;;;9.91;93.91;99810.31;4992157;28;20034;-58
2022/09/27 11:21:13;;;;;;;12.68;9.00;;;;;;;9.96;94.69;99817.59;4991062;28;20030;-58
2022/09/27 11:24:03;;;;;;;9.77;8.77;;;;;;;10.04;93.11;99822.31;4992317;28;20113;-58
2022/09/27 11:26:43;;;;;;;10.60;8.50;;;;;;;10.03;93.38;99817.13;4990846;28;20026;-58
2022/09/27 11:29:39;;;;;;;9.80;8.50;;;;;;;9.96;94.06;99798.28;4990840;28;20515;-59
2022/09/27 11:32:26;;;;;;;10.88;8.98;;;;;;;10.20;94.39;99819.03;4990814;28;20041;-59
2022/09/27 11:35:12;;;;;;;13.32;8.70;;;;;;;10.27;92.23;99814.63;4992316;28;20076;-59
2022/09/27 11:37:55;;;;;;;12.05;8.95;;;;;;;10.32;92.01;99818.34;4992494;28;20089;-59
2022/09/27 11:40:33;;;;;;;9.93;8.43;;;;;;;10.37;91.22;99812.63;4992907;28;20068;-59
2022/09/27 11:43:17;;;;;;;12.27;8.90;;;;;;;10.40;92.55;99812.81;4991236;28;20404;-59
2022/09/27 11:46:19;;;;;;;11.20;8.55;;;;;;;10.42;91.51;99796.72;4992586;28;20038;-59